Terminal Aerodrome Forecast
Issued by NWS

Home | Current Version | Previous Version | Text Only | Print | Product List | Glossary Off
Versions: 1 2 3 4 5 6 7 8 9 10 11 12 13

000
FTUS43 KBIS 251720
TAFDIK
TAF
KDIK 251720Z 2518/2618 16017G23KT P6SM FEW300
     FM260100 15010KT P6SM FEW300
     FM260600 16010KT P6SM SCT250
     FM261500 14009KT P6SM SCT140 BKN180=

USA.gov is the U.S. government's official web portal to all federal, state and local government web resources and services.